Time;durP1;ratioP1;P1;durP2;ratioP2;P2;SDS_P1;SDS_P2;PMS_P1;PMS_P2;Temp;Humidity;BMP_temperature;BMP_pressure;BME280_temperature;BME280_humidity;BME280_pressure;Samples;Min_cycle;Max_cycle;Signal;HPM_P1;HPM_P2
2021/09/02 00:02:13;;;;;;;15.80;10.48;;;13.90;99.90;;;;;;5059829;28;20045;-76
2021/09/02 00:04:40;;;;;;;17.73;9.85;;;13.80;99.90;;;;;;5060478;28;20102;-76
2021/09/02 00:07:07;;;;;;;16.67;9.73;;;13.70;99.90;;;;;;5060520;28;20048;-77
2021/09/02 00:09:36;;;;;;;13.88;8.40;;;13.70;99.90;;;;;;5058342;28;20044;-76
2021/09/02 00:12:03;;;;;;;18.05;9.55;;;13.70;99.90;;;;;;5063307;28;20056;-76
2021/09/02 00:14:30;;;;;;;22.08;10.48;;;13.70;99.90;;;;;;5060425;28;20048;-76
2021/09/02 00:16:57;;;;;;;15.38;9.20;;;13.80;99.90;;;;;;5060417;28;20059;-77
2021/09/02 00:19:25;;;;;;;16.75;9.18;;;13.70;99.90;;;;;;5060379;28;20079;-76
2021/09/02 00:21:51;;;;;;;13.98;8.73;;;13.70;99.90;;;;;;5059177;28;20522;-75
2021/09/02 00:24:18;;;;;;;14.70;8.88;;;13.70;99.90;;;;;;5063839;28;20052;-76
2021/09/02 00:26:47;;;;;;;13.05;8.10;;;13.70;99.90;;;;;;5055969;28;20072;-76
2021/09/02 00:29:14;;;;;;;15.50;9.00;;;13.80;99.90;;;;;;5068650;28;20048;-76
2021/09/02 00:31:41;;;;;;;13.90;8.75;;;13.80;99.90;;;;;;5066431;28;20467;-76
2021/09/02 00:34:08;;;;;;;19.80;9.63;;;13.70;99.90;;;;;;5066648;28;20045;-78
2021/09/02 00:36:35;;;;;;;14.63;8.70;;;13.70;99.90;;;;;;5063395;28;20568;-78
2021/09/02 00:39:02;;;;;;;16.33;8.90;;;13.70;99.90;;;;;;5066049;28;20097;-75
2021/09/02 00:41:29;;;;;;;15.40;9.38;;;13.70;99.90;;;;;;5065343;28;20108;-75
2021/09/02 00:43:58;;;;;;;17.42;9.82;;;13.60;99.90;;;;;;5069122;28;20472;-74
2021/09/02 00:46:25;;;;;;;16.67;10.38;;;13.50;99.90;;;;;;5061089;28;20056;-76
2021/09/02 00:48:52;;;;;;;15.18;10.32;;;13.40;99.90;;;;;;5059323;28;20107;-75
2021/09/02 00:51:20;;;;;;;17.98;10.00;;;13.30;99.90;;;;;;5065382;28;20045;-75
2021/09/02 00:53:49;;;;;;;14.45;8.98;;;13.30;99.90;;;;;;5061111;28;20465;-75
2021/09/02 00:56:16;;;;;;;22.58;9.75;;;13.30;99.90;;;;;;5064695;28;20044;-74
2021/09/02 00:58:44;;;;;;;18.50;10.07;;;13.20;99.90;;;;;;5052061;28;20073;-75
2021/09/02 01:01:12;;;;;;;14.65;9.85;;;13.20;99.90;;;;;;5068665;28;20080;-75
2021/09/02 01:03:39;;;;;;;15.68;9.13;;;13.20;99.90;;;;;;5068029;28;20052;-74
2021/09/02 01:06:06;;;;;;;17.77;9.60;;;13.20;99.90;;;;;;5069943;28;20040;-74
2021/09/02 01:08:35;;;;;;;16.83;9.82;;;13.20;99.90;;;;;;5067077;28;20128;-75
2021/09/02 01:11:02;;;;;;;15.98;10.23;;;13.20;99.90;;;;;;5065401;28;20044;-75
2021/09/02 01:13:30;;;;;;;19.55;9.75;;;13.20;99.90;;;;;;5060634;28;20289;-76
2021/09/02 01:15:57;;;;;;;16.60;9.50;;;13.30;99.90;;;;;;5059096;28;20102;-76
2021/09/02 01:18:25;;;;;;;16.15;9.20;;;13.30;99.90;;;;;;5057676;28;20457;-75
2021/09/02 01:20:52;;;;;;;17.17;9.45;;;13.30;99.90;;;;;;5063497;28;20041;-76
2021/09/02 01:23:24;;;;;;;15.35;9.23;;;13.30;99.90;;;;;;5058008;28;20064;-73
2021/09/02 01:25:51;;;;;;;15.48;9.23;;;13.20;99.90;;;;;;5064122;28;20065;-76
2021/09/02 01:28:18;;;;;;;16.65;9.75;;;13.20;99.90;;;;;;5067392;28;20067;-74
2021/09/02 01:30:45;;;;;;;16.98;9.73;;;13.10;99.90;;;;;;5057039;28;20187;-76
2021/09/02 01:33:14;;;;;;;15.43;9.88;;;13.10;99.90;;;;;;5058063;28;20408;-75
2021/09/02 01:35:41;;;;;;;16.08;9.82;;;13.00;99.90;;;;;;5064696;28;20045;-76
2021/09/02 01:38:11;;;;;;;21.70;10.55;;;13.10;99.90;;;;;;5070436;28;20424;-75
2021/09/02 01:40:44;;;;;;;16.60;10.50;;;13.00;99.90;;;;;;5058785;28;20493;-76
2021/09/02 01:43:15;;;;;;;15.93;10.13;;;13.00;99.90;;;;;;5057314;28;20048;-74
2021/09/02 01:45:42;;;;;;;18.42;10.43;;;12.90;99.90;;;;;;5065208;28;20040;-78
2021/09/02 01:48:10;;;;;;;17.98;9.90;;;12.90;99.90;;;;;;5058115;28;20048;-75
2021/09/02 01:50:40;;;;;;;15.30;9.57;;;12.90;99.90;;;;;;5066241;28;20110;-75
2021/09/02 01:53:09;;;;;;;19.88;10.50;;;12.90;99.90;;;;;;5056706;28;20052;-75
2021/09/02 01:55:37;;;;;;;18.67;10.38;;;12.90;99.90;;;;;;5060865;28;20055;-75
2021/09/02 01:58:06;;;;;;;17.70;10.68;;;12.80;99.90;;;;;;5064908;28;20041;-75
2021/09/02 02:00:34;;;;;;;20.33;10.85;;;12.80;99.90;;;;;;5056790;28;20524;-76
2021/09/02 02:03:01;;;;;;;16.13;10.07;;;12.80;99.90;;;;;;5060056;28;20071;-75
2021/09/02 02:05:30;;;;;;;23.20;10.02;;;12.80;99.90;;;;;;5059911;28;20532;-75
2021/09/02 02:07:57;;;;;;;17.00;9.35;;;12.80;99.90;;;;;;5064710;28;20476;-76
2021/09/02 02:10:27;;;;;;;15.10;8.95;;;12.70;99.90;;;;;;5060420;28;20044;-76
2021/09/02 02:12:55;;;;;;;18.55;9.43;;;12.70;99.90;;;;;;5058480;28;20044;-77
2021/09/02 02:15:24;;;;;;;19.23;10.20;;;12.70;99.90;;;;;;5055045;28;20072;-76
2021/09/02 02:17:51;;;;;;;18.65;10.48;;;12.70;99.90;;;;;;5058747;28;20110;-75
2021/09/02 02:20:18;;;;;;;19.85;10.32;;;12.60;99.90;;;;;;5055445;28;20049;-74
2021/09/02 02:22:45;;;;;;;15.68;9.45;;;12.60;99.90;;;;;;5055880;28;20044;-75
2021/09/02 02:25:14;;;;;;;16.92;10.30;;;12.60;99.90;;;;;;5070464;28;20083;-74
2021/09/02 02:27:42;;;;;;;16.65;9.93;;;12.60;99.90;;;;;;5060212;28;20425;-74
2021/09/02 02:30:12;;;;;;;14.95;9.35;;;12.50;99.90;;;;;;5061682;28;20049;-75
2021/09/02 02:32:41;;;;;;;16.58;9.32;;;12.40;99.90;;;;;;5062786;28;20056;-75
2021/09/02 02:35:09;;;;;;;17.20;9.15;;;12.50;99.90;;;;;;5073506;28;20048;-74
2021/09/02 02:37:36;;;;;;;16.45;9.48;;;12.50;99.90;;;;;;5064145;28;20102;-75
2021/09/02 02:40:04;;;;;;;15.02;9.43;;;12.50;99.90;;;;;;5065835;28;20098;-74
2021/09/02 02:42:32;;;;;;;15.57;9.18;;;12.40;99.90;;;;;;5057924;28;20413;-74
2021/09/02 02:45:01;;;;;;;15.68;9.60;;;12.40;99.90;;;;;;5074513;28;20098;-76
2021/09/02 02:47:28;;;;;;;19.33;9.00;;;12.50;99.90;;;;;;5065301;28;20117;-76
2021/09/02 02:50:00;;;;;;;12.80;8.82;;;12.50;99.90;;;;;;5064224;28;20155;-75
2021/09/02 02:52:27;;;;;;;16.55;9.43;;;12.40;99.90;;;;;;5063102;28;20048;-74
2021/09/02 02:54:54;;;;;;;16.05;9.52;;;12.40;99.90;;;;;;5071308;28;20592;-74
2021/09/02 02:57:21;;;;;;;15.40;9.52;;;12.40;99.90;;;;;;5064332;28;20049;-75
2021/09/02 02:59:48;;;;;;;17.38;8.75;;;12.30;99.90;;;;;;5059537;28;20052;-75
2021/09/02 03:02:15;;;;;;;17.10;9.25;;;12.30;99.90;;;;;;5065320;28;20049;-74
2021/09/02 03:04:42;;;;;;;20.27;10.23;;;12.30;99.90;;;;;;5062507;28;20041;-75
2021/09/02 03:07:10;;;;;;;14.60;8.43;;;12.30;99.90;;;;;;5072631;28;20113;-76
2021/09/02 03:09:40;;;;;;;17.88;10.18;;;12.20;99.90;;;;;;5053917;28;20056;-73
2021/09/02 03:12:08;;;;;;;19.02;10.25;;;12.20;99.90;;;;;;5060115;28;20110;-75
2021/09/02 03:14:34;;;;;;;15.30;9.52;;;12.10;99.90;;;;;;5062171;28;20049;-74
2021/09/02 03:17:01;;;;;;;14.35;9.43;;;12.10;99.90;;;;;;5069589;28;20070;-75
2021/09/02 03:19:28;;;;;;;16.25;9.15;;;12.00;99.90;;;;;;5061640;28;21790;-78
2021/09/02 03:21:55;;;;;;;15.60;9.25;;;12.10;99.90;;;;;;5069505;28;20036;-75
2021/09/02 03:24:24;;;;;;;15.40;8.98;;;12.10;99.90;;;;;;5054811;28;20044;-74
2021/09/02 03:26:51;;;;;;;18.77;9.57;;;12.00;99.90;;;;;;5065646;28;20048;-74
2021/09/02 03:29:18;;;;;;;13.68;8.55;;;12.10;99.90;;;;;;5062406;28;20053;-74
2021/09/02 03:31:45;;;;;;;14.98;8.75;;;12.10;99.90;;;;;;5063088;28;20044;-75
2021/09/02 03:34:12;;;;;;;16.20;9.95;;;12.10;99.90;;;;;;5071404;28;20048;-77
2021/09/02 03:36:41;;;;;;;17.60;10.68;;;12.10;99.90;;;;;;5063066;28;20455;-75
2021/09/02 03:39:08;;;;;;;19.00;10.32;;;12.10;99.90;;;;;;5070280;28;20109;-75
2021/09/02 03:41:36;;;;;;;18.60;10.57;;;12.10;99.90;;;;;;5058390;28;20443;-76
2021/09/02 03:44:03;;;;;;;17.40;9.73;;;12.00;99.90;;;;;;5068960;28;20048;-76
2021/09/02 03:46:31;;;;;;;15.73;9.48;;;12.00;99.90;;;;;;5054394;28;20052;-76
2021/09/02 03:48:58;;;;;;;18.60;10.60;;;12.00;99.90;;;;;;5065561;28;20052;-77
2021/09/02 03:51:25;;;;;;;17.15;9.98;;;12.00;99.90;;;;;;5054062;28;20103;-76
2021/09/02 03:53:52;;;;;;;20.23;10.50;;;12.00;99.90;;;;;;5067463;28;20040;-76
2021/09/02 03:56:19;;;;;;;16.95;9.93;;;11.90;99.90;;;;;;5074069;28;20048;-75
2021/09/02 03:58:47;;;;;;;16.02;8.75;;;11.90;99.90;;;;;;5063634;28;20045;-75
2021/09/02 04:01:14;;;;;;;15.90;8.93;;;11.90;99.90;;;;;;5063489;28;20045;-74
2021/09/02 04:03:41;;;;;;;19.13;9.57;;;11.90;99.90;;;;;;5063726;28;20459;-75
2021/09/02 04:06:08;;;;;;;17.35;9.85;;;11.90;99.90;;;;;;5070799;28;20570;-76
2021/09/02 04:08:35;;;;;;;14.65;8.65;;;11.90;99.90;;;;;;5069297;28;20045;-77
2021/09/02 04:11:02;;;;;;;20.08;10.02;;;11.80;99.90;;;;;;5057547;28;20041;-75
2021/09/02 04:13:29;;;;;;;22.45;11.63;;;11.80;99.90;;;;;;5065213;28;20053;-75
2021/09/02 04:15:58;;;;;;;16.75;10.15;;;11.90;99.90;;;;;;5073657;28;20045;-75
2021/09/02 04:18:24;;;;;;;16.90;10.48;;;11.80;99.90;;;;;;5056253;28;20107;-73
2021/09/02 04:20:51;;;;;;;18.35;10.95;;;11.90;99.90;;;;;;5062579;28;20055;-73
2021/09/02 04:23:19;;;;;;;18.45;9.98;;;11.80;99.90;;;;;;5064710;28;20048;-74
2021/09/02 04:25:46;;;;;;;16.92;9.60;;;11.70;99.90;;;;;;5067678;28;20040;-75
2021/09/02 04:28:13;;;;;;;17.60;9.93;;;11.70;99.90;;;;;;5072159;28;20044;-74
2021/09/02 04:30:40;;;;;;;14.77;9.32;;;11.80;99.90;;;;;;5059569;28;20045;-73
2021/09/02 04:33:08;;;;;;;17.45;10.60;;;11.70;99.90;;;;;;5070796;28;20106;-74
2021/09/02 04:35:35;;;;;;;16.10;9.98;;;11.70;99.90;;;;;;5056870;28;20055;-75
2021/09/02 04:38:02;;;;;;;17.65;9.98;;;11.70;99.90;;;;;;5070597;28;20048;-74
2021/09/02 04:40:29;;;;;;;15.02;9.68;;;11.70;99.90;;;;;;5060264;28;20057;-76
2021/09/02 04:42:56;;;;;;;16.90;9.13;;;11.70;99.90;;;;;;5058449;28;20059;-75
2021/09/02 04:45:23;;;;;;;18.15;9.70;;;11.70;99.90;;;;;;5071095;28;20094;-76
2021/09/02 04:47:50;;;;;;;18.45;9.88;;;11.70;99.90;;;;;;5066553;28;20543;-74
2021/09/02 04:50:19;;;;;;;16.42;9.55;;;11.70;99.90;;;;;;5070670;28;20535;-74
2021/09/02 04:52:47;;;;;;;37.03;11.32;;;11.70;99.90;;;;;;5057195;28;20037;-76
2021/09/02 04:55:14;;;;;;;16.98;9.77;;;11.70;99.90;;;;;;5060041;28;20068;-81
2021/09/02 04:57:41;;;;;;;23.33;10.15;;;11.70;99.90;;;;;;5055011;28;20412;-74
2021/09/02 05:00:10;;;;;;;17.25;10.75;;;11.70;99.90;;;;;;5068173;28;20105;-76
2021/09/02 05:02:37;;;;;;;21.83;10.35;;;11.70;99.90;;;;;;5066649;28;20037;-75
2021/09/02 05:05:04;;;;;;;18.77;10.13;;;11.80;99.90;;;;;;5054632;28;20037;-75
2021/09/02 05:07:35;;;;;;;18.38;10.27;;;11.70;99.90;;;;;;5066162;28;20044;-74
2021/09/02 05:10:05;;;;;;;21.48;9.38;;;11.80;99.90;;;;;;5067868;28;20052;-74
2021/09/02 05:12:32;;;;;;;19.27;10.32;;;11.80;99.90;;;;;;5071071;28;20052;-73
2021/09/02 05:14:59;;;;;;;20.60;10.80;;;11.90;99.90;;;;;;5066884;28;20049;-76
2021/09/02 05:17:26;;;;;;;20.45;10.75;;;11.90;99.90;;;;;;5061623;28;20052;-75
2021/09/02 05:19:53;;;;;;;17.48;10.23;;;11.80;99.90;;;;;;5058657;28;20056;-75
2021/09/02 05:22:20;;;;;;;19.73;11.43;;;11.90;99.90;;;;;;5060523;28;20493;-74
2021/09/02 05:24:49;;;;;;;17.80;10.60;;;11.90;99.90;;;;;;5048766;28;20071;-76
2021/09/02 05:27:16;;;;;;;20.30;10.43;;;11.90;99.90;;;;;;5067461;28;20044;-76
2021/09/02 05:29:43;;;;;;;21.20;11.32;;;11.90;99.90;;;;;;5059644;28;20053;-74
2021/09/02 05:32:11;;;;;;;21.40;11.13;;;11.90;99.90;;;;;;5067065;28;20082;-76
2021/09/02 05:34:38;;;;;;;20.13;10.13;;;12.00;99.90;;;;;;5067490;28;20472;-74
2021/09/02 05:37:05;;;;;;;29.13;12.05;;;11.90;99.90;;;;;;5062543;28;20113;-73
2021/09/02 05:39:32;;;;;;;21.73;10.77;;;11.90;99.90;;;;;;5067496;28;20618;-73
2021/09/02 05:42:01;;;;;;;20.58;10.65;;;12.00;99.90;;;;;;5063424;28;20045;-78
2021/09/02 05:44:27;;;;;;;20.83;10.93;;;12.10;99.90;;;;;;5058925;28;20045;-76
2021/09/02 05:46:55;;;;;;;23.13;11.35;;;12.20;99.90;;;;;;5064937;28;20509;-75
2021/09/02 05:49:23;;;;;;;16.63;10.73;;;12.20;99.90;;;;;;5059053;28;20048;-76
2021/09/02 05:51:50;;;;;;;16.20;9.88;;;12.20;99.90;;;;;;5052993;28;20073;-75
2021/09/02 05:54:17;;;;;;;18.10;11.15;;;12.20;99.90;;;;;;5061181;28;20049;-75
2021/09/02 05:56:44;;;;;;;15.30;9.85;;;12.20;99.90;;;;;;5052890;28;20091;-76
2021/09/02 05:59:13;;;;;;;17.25;9.85;;;12.20;99.90;;;;;;5054662;28;20049;-75
2021/09/02 06:01:40;;;;;;;18.67;10.45;;;12.40;99.90;;;;;;5063976;28;20492;-75
2021/09/02 06:04:07;;;;;;;15.73;10.00;;;12.40;99.90;;;;;;5072618;28;20547;-75
2021/09/02 06:06:34;;;;;;;16.77;9.90;;;12.40;99.90;;;;;;5059448;28;20037;-75
2021/09/02 06:09:01;;;;;;;23.60;10.40;;;12.50;99.90;;;;;;5066779;28;20052;-75
2021/09/02 06:11:28;;;;;;;19.30;10.43;;;12.50;99.90;;;;;;5073998;28;20075;-76
2021/09/02 06:13:55;;;;;;;23.92;10.60;;;12.60;99.90;;;;;;5070100;28;20412;-74
2021/09/02 06:16:24;;;;;;;17.75;10.55;;;12.60;99.90;;;;;;5063692;28;20045;-75
2021/09/02 06:18:51;;;;;;;18.67;9.90;;;12.70;99.90;;;;;;5065781;28;20098;-74
2021/09/02 06:21:18;;;;;;;21.08;9.18;;;12.70;99.90;;;;;;5075797;28;20040;-76
2021/09/02 06:23:45;;;;;;;19.67;10.95;;;12.80;99.90;;;;;;5077011;28;20102;-80
2021/09/02 06:26:13;;;;;;;17.30;10.40;;;12.90;99.90;;;;;;5075863;28;20049;-76
2021/09/02 06:28:40;;;;;;;24.42;10.80;;;13.00;99.90;;;;;;5074188;28;20040;-73
2021/09/02 06:31:07;;;;;;;19.60;10.70;;;13.10;99.90;;;;;;5063670;28;20048;-78
2021/09/02 06:33:35;;;;;;;23.35;10.88;;;13.20;99.90;;;;;;5074866;28;20044;-75
2021/09/02 06:36:03;;;;;;;18.73;11.68;;;13.20;99.90;;;;;;5064898;28;20493;-75
2021/09/02 06:38:30;;;;;;;18.45;10.23;;;13.30;99.90;;;;;;5071343;28;20053;-77
2021/09/02 06:40:57;;;;;;;26.30;10.63;;;13.40;99.90;;;;;;5068941;28;20053;-75
2021/09/02 06:43:24;;;;;;;20.55;11.18;;;13.40;99.90;;;;;;5062434;28;20500;-76
2021/09/02 06:45:51;;;;;;;18.38;10.32;;;13.50;99.90;;;;;;5069023;28;20115;-75
2021/09/02 06:48:17;;;;;;;17.85;11.07;;;13.40;99.90;;;;;;5060320;28;20044;-74
2021/09/02 06:50:46;;;;;;;17.70;10.68;;;13.50;99.90;;;;;;5070215;28;20065;-75
2021/09/02 06:53:13;;;;;;;21.48;12.07;;;13.70;99.90;;;;;;5069246;28;20071;-75
2021/09/02 06:55:40;;;;;;;18.17;10.50;;;13.70;99.90;;;;;;5067251;28;20497;-76
2021/09/02 06:58:07;;;;;;;20.55;11.23;;;13.80;99.90;;;;;;5073925;28;20048;-77
2021/09/02 07:00:34;;;;;;;31.58;12.13;;;14.00;99.90;;;;;;5068431;28;20090;-76
2021/09/02 07:03:01;;;;;;;22.02;10.95;;;14.10;99.90;;;;;;5064171;28;20045;-76
2021/09/02 07:05:28;;;;;;;18.88;11.20;;;14.20;99.90;;;;;;5064073;28;20044;-77
2021/09/02 07:07:56;;;;;;;17.70;11.10;;;14.30;99.90;;;;;;5061399;28;20114;-76
2021/09/02 07:10:23;;;;;;;19.48;11.75;;;14.40;99.90;;;;;;5061647;28;20044;-79
2021/09/02 07:12:50;;;;;;;22.35;10.75;;;14.40;99.90;;;;;;5056874;28;20135;-76
2021/09/02 07:15:17;;;;;;;20.33;11.52;;;14.50;99.90;;;;;;5068604;28;20052;-71
2021/09/02 07:17:44;;;;;;;16.80;10.27;;;14.60;99.90;;;;;;5066854;28;20080;-77
2021/09/02 07:20:13;;;;;;;16.63;10.85;;;14.80;99.90;;;;;;5058238;28;20049;-74
2021/09/02 07:22:40;;;;;;;23.00;10.82;;;14.80;99.90;;;;;;5060659;28;20580;-75
2021/09/02 07:25:09;;;;;;;17.90;11.48;;;14.90;99.90;;;;;;5065941;28;20044;-77
2021/09/02 07:27:36;;;;;;;19.30;11.23;;;15.00;99.90;;;;;;5059170;28;20451;-75
2021/09/02 07:30:05;;;;;;;20.20;12.68;;;15.20;99.90;;;;;;5058328;28;20098;-75
2021/09/02 07:32:32;;;;;;;21.92;11.85;;;15.30;99.90;;;;;;5058906;28;20041;-76
2021/09/02 07:34:59;;;;;;;24.08;12.68;;;15.30;99.90;;;;;;5059763;28;20121;-74
2021/09/02 07:37:26;;;;;;;23.38;12.25;;;15.20;99.90;;;;;;5061090;28;20048;-72
2021/09/02 07:39:53;;;;;;;23.38;12.25;;;15.30;99.90;;;;;;5062176;28;20060;-76
2021/09/02 07:42:21;;;;;;;24.35;12.75;;;15.40;99.90;;;;;;5060299;28;20048;-74
2021/09/02 07:44:49;;;;;;;22.67;13.73;;;15.60;99.90;;;;;;5070126;28;20052;-74
2021/09/02 07:47:21;;;;;;;32.53;14.10;;;15.70;99.90;;;;;;5057227;28;20056;-77
2021/09/02 07:49:48;;;;;;;23.73;13.80;;;15.70;99.90;;;;;;5061733;28;20066;-74
2021/09/02 07:52:15;;;;;;;25.27;13.10;;;15.90;99.90;;;;;;5071889;28;20440;-75
2021/09/02 07:54:42;;;;;;;23.75;12.73;;;16.10;99.90;;;;;;5068155;28;20500;-76
2021/09/02 07:57:09;;;;;;;25.88;14.40;;;16.40;99.90;;;;;;5063694;28;20213;-77
2021/09/02 07:59:37;;;;;;;24.05;12.77;;;16.60;99.90;;;;;;5067276;28;20100;-75
2021/09/02 08:02:04;;;;;;;23.35;12.88;;;16.80;99.90;;;;;;5054635;28;20072;-72
2021/09/02 08:04:31;;;;;;;23.95;12.65;;;16.90;99.90;;;;;;5064649;28;20185;-74
2021/09/02 08:06:59;;;;;;;23.35;12.85;;;17.00;99.90;;;;;;5066985;28;20118;-78
2021/09/02 08:09:29;;;;;;;26.02;14.75;;;17.20;99.90;;;;;;5071341;28;20056;-78
2021/09/02 08:11:56;;;;;;;23.02;13.68;;;17.20;99.90;;;;;;5064891;28;20044;-77
2021/09/02 08:14:24;;;;;;;26.85;13.95;;;17.30;99.90;;;;;;5066150;28;20045;-80
2021/09/02 08:16:52;;;;;;;19.38;13.40;;;17.40;99.90;;;;;;5054316;28;20059;-79
2021/09/02 08:19:19;;;;;;;22.17;14.30;;;17.60;99.90;;;;;;5063777;28;20084;-81
2021/09/02 08:21:47;;;;;;;25.55;14.85;;;17.90;99.90;;;;;;5062239;28;20554;-76
2021/09/02 08:24:16;;;;;;;24.80;14.27;;;18.10;99.90;;;;;;5067076;28;20067;-76
2021/09/02 08:26:43;;;;;;;29.60;15.02;;;18.30;99.90;;;;;;5063625;28;20524;-77
2021/09/02 08:29:10;;;;;;;27.55;14.32;;;18.40;99.90;;;;;;5066729;28;20447;-75
2021/09/02 08:31:37;;;;;;;24.27;13.90;;;19.00;99.90;;;;;;5058509;28;20047;-74
2021/09/02 08:34:05;;;;;;;22.40;14.90;;;19.90;99.90;;;;;;5060291;28;20052;-73
2021/09/02 08:36:32;;;;;;;20.77;14.55;;;20.80;99.90;;;;;;5060520;28;20045;-75
2021/09/02 08:38:59;;;;;;;29.15;14.00;;;21.50;99.90;;;;;;5053919;28;20041;-74
2021/09/02 08:41:27;;;;;;;21.42;14.43;;;22.60;99.90;;;;;;5059842;28;20048;-70
2021/09/02 08:43:54;;;;;;;20.38;14.20;;;23.20;99.90;;;;;;5058198;28;20048;-71
2021/09/02 08:46:21;;;;;;;21.35;14.20;;;23.80;99.90;;;;;;5054800;28;20103;-70
2021/09/02 08:48:50;;;;;;;19.58;15.05;;;24.90;99.90;;;;;;5045812;28;20083;-71
2021/09/02 08:51:18;;;;;;;21.42;13.90;;;25.60;99.90;;;;;;5044469;28;20924;-73
2021/09/02 08:53:45;;;;;;;19.00;13.68;;;26.40;99.90;;;;;;5043673;28;20044;-75
2021/09/02 08:56:13;;;;;;;20.70;13.27;;;27.20;99.90;;;;;;5053878;28;20420;-74
2021/09/02 08:58:40;;;;;;;21.10;14.75;;;27.90;99.90;;;;;;5060107;28;20049;-75
2021/09/02 09:01:10;;;;;;;18.90;14.10;;;28.20;99.90;;;;;;5060398;28;20045;-75
2021/09/02 09:03:38;;;;;;;17.42;13.13;;;28.40;99.90;;;;;;5059368;28;20493;-75
2021/09/02 09:06:07;;;;;;;22.13;14.90;;;28.60;99.90;;;;;;5053267;28;20044;-74
2021/09/02 09:08:38;;;;;;;17.23;13.43;;;28.20;99.90;;;;;;5054111;28;20081;-72
2021/09/02 09:11:18;;;;;;;16.50;12.43;;;28.80;99.90;;;;;;5047464;28;20259;-73
2021/09/02 09:13:46;;;;;;;15.93;11.90;;;29.20;99.90;;;;;;5050546;28;20493;-73
2021/09/02 09:16:13;;;;;;;16.73;12.02;;;30.00;99.90;;;;;;5050998;28;20049;-73
2021/09/02 09:18:45;;;;;;;14.93;12.00;;;30.20;99.90;;;;;;5052218;28;20060;-73
2021/09/02 09:21:14;;;;;;;17.23;13.05;;;30.30;99.90;;;;;;5052451;28;20045;-73
2021/09/02 09:23:58;;;;;;;19.40;11.85;;;30.60;99.90;;;;;;5060723;28;20063;-77
2021/09/02 09:26:26;;;;;;;19.80;13.13;;;30.90;99.90;;;;;;5055427;28;20059;-75
2021/09/02 09:28:56;;;;;;;15.88;12.15;;;31.50;99.90;;;;;;5058031;28;20107;-75
2021/09/02 09:31:31;;;;;;;18.40;12.48;;;31.90;99.90;;;;;;5050984;28;20079;-76
2021/09/02 09:34:00;;;;;;;20.55;12.82;;;31.80;99.90;;;;;;5051111;28;20107;-77
2021/09/02 09:36:28;;;;;;;18.75;12.70;;;31.50;99.90;;;;;;5055519;28;20052;-76
2021/09/02 09:39:01;;;;;;;17.50;12.98;;;32.00;99.90;;;;;;5054196;28;20531;-75
2021/09/02 09:41:36;;;;;;;16.00;11.48;;;32.20;99.90;;;;;;5055748;28;20135;-76
2021/09/02 09:44:21;;;;;;;16.55;11.60;;;31.60;99.90;;;;;;5056451;28;20044;-76
2021/09/02 09:47:08;;;;;;;15.68;11.48;;;30.40;99.90;;;;;;5057000;28;20137;-73
2021/09/02 09:49:47;;;;;;;15.73;11.23;;;30.60;99.90;;;;;;5048975;28;20475;-73
2021/09/02 09:52:26;;;;;;;20.02;12.52;;;31.20;99.90;;;;;;5048940;28;20040;-72
2021/09/02 09:55:00;;;;;;;17.83;11.20;;;31.00;99.90;;;;;;5055439;28;20102;-73
2021/09/02 09:57:30;;;;;;;15.18;10.50;;;31.70;99.90;;;;;;5058182;28;20094;-73
2021/09/02 10:00:01;;;;;;;15.52;10.68;;;32.40;99.90;;;;;;5054592;28;20041;-74
2021/09/02 10:02:29;;;;;;;15.25;10.63;;;33.00;99.20;;;;;;5066896;28;20789;-74
2021/09/02 10:04:57;;;;;;;15.95;10.32;;;33.50;97.50;;;;;;5066783;28;20045;-74
2021/09/02 10:07:25;;;;;;;13.20;9.55;;;33.70;96.10;;;;;;5063539;28;20055;-74
2021/09/02 10:09:53;;;;;;;15.02;10.73;;;31.90;97.50;;;;;;5053870;28;20053;-74
2021/09/02 10:12:23;;;;;;;14.93;10.27;;;30.60;98.30;;;;;;5054912;28;20048;-74
2021/09/02 10:14:50;;;;;;;14.63;9.77;;;29.50;99.00;;;;;;5056174;28;20052;-74
2021/09/02 10:17:17;;;;;;;14.68;9.35;;;28.10;99.20;;;;;;5056076;28;20480;-74
2021/09/02 10:19:45;;;;;;;14.15;9.10;;;28.40;99.90;;;;;;5060965;28;20044;-74
2021/09/02 10:22:12;;;;;;;12.00;8.80;;;29.10;99.90;;;;;;5058607;28;20088;-78
2021/09/02 10:24:41;;;;;;;16.92;10.10;;;29.50;98.80;;;;;;5066479;28;20297;-74
2021/09/02 10:27:37;;;;;;;15.57;8.95;;;28.20;99.90;;;;;;5067758;28;20049;-74
2021/09/02 10:30:25;;;;;;;19.88;9.93;;;27.30;99.90;;;;;;5040986;28;20052;-76
2021/09/02 10:32:54;;;;;;;17.35;10.60;;;26.80;99.90;;;;;;5058489;28;20188;-73
2021/09/02 10:35:35;;;;;;;13.57;8.75;;;27.40;99.90;;;;;;5057528;28;20128;-73
2021/09/02 10:38:04;;;;;;;13.52;8.68;;;27.30;99.90;;;;;;5056462;28;20056;-73
2021/09/02 10:40:46;;;;;;;12.30;8.48;;;28.60;99.90;;;;;;5054983;28;20494;-73
2021/09/02 10:43:14;;;;;;;13.93;9.20;;;29.80;99.90;;;;;;5050017;28;20049;-73
2021/09/02 10:45:42;;;;;;;13.48;8.98;;;30.40;99.70;;;;;;5052961;28;20095;-73
2021/09/02 10:48:18;;;;;;;14.68;9.85;;;30.70;98.70;;;;;;5046942;28;20043;-73
2021/09/02 10:50:47;;;;;;;14.37;8.93;;;29.50;99.00;;;;;;5050057;28;20049;-73
2021/09/02 10:53:15;;;;;;;14.77;8.75;;;30.30;99.90;;;;;;5054554;28;20049;-73
2021/09/02 10:55:51;;;;;;;13.10;8.73;;;30.80;97.90;;;;;;5050755;28;20063;-73
2021/09/02 10:58:49;;;;;;;12.70;7.95;;;30.90;97.50;;;;;;5067600;28;20044;-73
2021/09/02 11:01:27;;;;;;;12.82;7.50;;;31.60;96.30;;;;;;5061297;28;20106;-73
2021/09/02 11:03:56;;;;;;;12.43;8.05;;;32.70;97.10;;;;;;5054895;28;20384;-73
2021/09/02 11:06:23;;;;;;;10.07;6.22;;;32.90;95.30;;;;;;5058328;28;20056;-73
2021/09/02 11:08:50;;;;;;;10.45;7.22;;;33.00;93.50;;;;;;5060765;28;20539;-73
2021/09/02 11:11:19;;;;;;;15.95;6.30;;;33.00;93.00;;;;;;5055947;28;20481;-73
2021/09/02 11:13:48;;;;;;;9.65;6.10;;;33.50;93.10;;;;;;5057810;28;20051;-73
2021/09/02 11:16:18;;;;;;;12.13;5.93;;;34.20;91.90;;;;;;5053523;28;20049;-73
2021/09/02 11:18:47;;;;;;;11.35;6.78;;;34.20;91.20;;;;;;5056579;28;20041;-73
2021/09/02 11:21:15;;;;;;;11.35;6.15;;;34.20;90.00;;;;;;5061492;28;20497;-74
2021/09/02 11:23:45;;;;;;;10.10;5.85;;;34.00;90.10;;;;;;5059893;28;20048;-74
2021/09/02 11:26:12;;;;;;;9.75;6.20;;;33.50;90.90;;;;;;5056119;28;20075;-74
2021/09/02 11:28:49;;;;;;;9.32;6.05;;;32.60;90.80;;;;;;5055353;28;20112;-74
2021/09/02 11:31:18;;;;;;;12.15;6.28;;;31.50;91.80;;;;;;5051684;28;20119;-74
2021/09/02 11:33:46;;;;;;;11.10;6.22;;;31.60;92.10;;;;;;5052162;28;20054;-74
2021/09/02 11:36:13;;;;;;;8.15;5.70;;;31.00;91.10;;;;;;5056373;28;20076;-74
2021/09/02 11:38:42;;;;;;;11.85;4.75;;;30.10;91.90;;;;;;5052375;28;20420;-74
2021/09/02 11:41:16;;;;;;;10.23;5.45;;;31.10;91.80;;;;;;5055401;28;20057;-74
2021/09/02 11:43:43;;;;;;;10.98;5.10;;;31.80;90.60;;;;;;5051725;28;20084;-74
2021/09/02 11:46:11;;;;;;;10.13;5.38;;;32.50;90.40;;;;;;5056969;28;20037;-74
2021/09/02 11:48:51;;;;;;;9.50;5.30;;;33.50;89.70;;;;;;5057614;28;20072;-74
2021/09/02 11:51:23;;;;;;;10.02;5.82;;;33.90;87.40;;;;;;5061645;28;20048;-74
2021/09/02 11:54:04;;;;;;;9.20;5.50;;;34.40;88.50;;;;;;5052233;28;20045;-74
2021/09/02 11:56:31;;;;;;;9.38;5.60;;;34.00;87.20;;;;;;5053518;28;20045;-75
2021/09/02 11:58:58;;;;;;;8.82;6.05;;;33.80;85.70;;;;;;5052930;28;20048;-74
2021/09/02 12:01:26;;;;;;;8.52;5.20;;;34.00;87.30;;;;;;5052174;28;20060;-74
2021/09/02 12:03:55;;;;;;;12.35;6.32;;;34.40;83.70;;;;;;5054658;28;20052;-74
2021/09/02 12:06:25;;;;;;;9.00;5.30;;;33.80;83.70;;;;;;5058496;28;20063;-74
2021/09/02 12:08:54;;;;;;;8.13;5.30;;;33.10;84.00;;;;;;5059439;28;20388;-75
2021/09/02 12:11:21;;;;;;;8.50;5.28;;;33.30;86.40;;;;;;5057707;28;20367;-72
2021/09/02 12:13:48;;;;;;;9.40;5.50;;;34.00;80.60;;;;;;5057700;28;20045;-73
2021/09/02 12:16:17;;;;;;;6.40;4.32;;;33.90;80.10;;;;;;5058952;28;20048;-71
2021/09/02 12:18:46;;;;;;;8.45;4.78;;;33.40;78.10;;;;;;5055875;28;20060;-73
2021/09/02 12:21:18;;;;;;;8.20;4.97;;;32.60;79.30;;;;;;5055184;28;20129;-73
2021/09/02 12:23:47;;;;;;;8.90;4.82;;;33.40;82.90;;;;;;5053364;28;20060;-74
2021/09/02 12:26:16;;;;;;;9.93;5.15;;;33.90;79.10;;;;;;5055005;28;20504;-74
2021/09/02 12:28:45;;;;;;;8.02;4.85;;;33.70;78.70;;;;;;5053732;28;20105;-74
2021/09/02 12:31:18;;;;;;;8.90;5.18;;;33.90;79.30;;;;;;5055391;28;20132;-74
2021/09/02 12:34:13;;;;;;;7.45;4.65;;;33.70;78.00;;;;;;5060298;28;20053;-74
2021/09/02 12:37:12;;;;;;;9.60;5.28;;;33.60;79.90;;;;;;5062255;28;20458;-74
2021/09/02 12:39:49;;;;;;;7.88;5.32;;;33.10;77.00;;;;;;5055514;28;20135;-73
2021/09/02 12:42:22;;;;;;;7.88;4.50;;;33.50;76.60;;;;;;5050336;28;20056;-73